sensor_id;sensor_type;location;lat;lon;timestamp;pressure;altitude;pressure_sealevel;temperature;humidity
50684;BME280;36654;45.042;38.994;2023-04-24T00:00:14;101020.53;;;12.29;69.00
50684;BME280;36654;45.042;38.994;2023-04-24T00:02:41;101013.44;;;12.28;69.13
50684;BME280;36654;45.042;38.994;2023-04-24T00:05:10;101031.16;;;12.33;68.92
50684;BME280;36654;45.042;38.994;2023-04-24T00:07:37;101011.63;;;12.24;69.10
50684;BME280;36654;45.042;38.994;2023-04-24T00:10:02;100983.06;;;12.02;69.29
50684;BME280;36654;45.042;38.994;2023-04-24T00:12:28;101016.03;;;12.24;69.67
50684;BME280;36654;45.042;38.994;2023-04-24T00:14:54;101024.88;;;12.21;69.66
50684;BME280;36654;45.042;38.994;2023-04-24T00:17:20;101023.09;;;12.19;69.79
50684;BME280;36654;45.042;38.994;2023-04-24T00:19:47;101015.09;;;12.17;69.88
50684;BME280;36654;45.042;38.994;2023-04-24T00:22:13;100986.63;;;12.01;69.96
50684;BME280;36654;45.042;38.994;2023-04-24T00:24:40;100980.38;;;12.00;70.17
50684;BME280;36654;45.042;38.994;2023-04-24T00:27:06;101011.53;;;12.15;70.24
50684;BME280;36654;45.042;38.994;2023-04-24T00:29:31;101006.19;;;12.12;70.24
50684;BME280;36654;45.042;38.994;2023-04-24T00:31:57;101016.03;;;12.21;70.30
50684;BME280;36654;45.042;38.994;2023-04-24T00:34:23;101016.94;;;12.24;70.20
50684;BME280;36654;45.042;38.994;2023-04-24T00:36:48;101020.53;;;12.29;70.25
50684;BME280;36654;45.042;38.994;2023-04-24T00:39:18;100993.00;;;12.21;70.15
50684;BME280;36654;45.042;38.994;2023-04-24T00:41:45;101004.59;;;12.31;69.97
50684;BME280;36654;45.042;38.994;2023-04-24T00:44:11;100991.31;;;12.34;69.93
50684;BME280;36654;45.042;38.994;2023-04-24T00:46:37;101001.09;;;12.37;69.82
50684;BME280;36654;45.042;38.994;2023-04-24T00:49:04;100983.38;;;12.36;69.74
50684;BME280;36654;45.042;38.994;2023-04-24T00:51:30;100976.22;;;12.32;69.75
50684;BME280;36654;45.042;38.994;2023-04-24T00:54:00;100994.91;;;12.39;69.69
50684;BME280;36654;45.042;38.994;2023-04-24T00:56:26;100989.56;;;12.38;69.50
50684;BME280;36654;45.042;38.994;2023-04-24T00:58:52;100974.38;;;12.18;69.58
50684;BME280;36654;45.042;38.994;2023-04-24T01:01:20;100994.84;;;12.32;69.67
50684;BME280;36654;45.042;38.994;2023-04-24T01:03:47;101009.88;;;12.29;69.76
50684;BME280;36654;45.042;38.994;2023-04-24T01:06:13;101002.72;;;12.22;69.86
50684;BME280;36654;45.042;38.994;2023-04-24T01:08:39;100995.66;;;12.21;70.06
50684;BME280;36654;45.042;38.994;2023-04-24T01:11:06;100998.28;;;12.23;70.05
50684;BME280;36654;45.042;38.994;2023-04-24T01:13:32;101004.53;;;12.23;69.74
50684;BME280;36654;45.042;38.994;2023-04-24T01:15:59;100977.78;;;12.08;69.99
50684;BME280;36654;45.042;38.994;2023-04-24T01:18:25;100995.63;;;12.18;70.20
50684;BME280;36654;45.042;38.994;2023-04-24T01:20:56;100994.69;;;12.15;70.38
50684;BME280;36654;45.042;38.994;2023-04-24T01:23:22;100986.69;;;12.10;70.63
50684;BME280;36654;45.042;38.994;2023-04-24T01:25:49;100975.97;;;12.01;70.87
50684;BME280;36654;45.042;38.994;2023-04-24T01:28:16;100974.19;;;12.03;71.00
50684;BME280;36654;45.042;38.994;2023-04-24T01:30:41;100982.16;;;12.00;71.16
50684;BME280;36654;45.042;38.994;2023-04-24T01:33:07;100961.72;;;11.93;71.24
50684;BME280;36654;45.042;38.994;2023-04-24T01:35:33;100952.88;;;11.95;71.43
50684;BME280;36654;45.042;38.994;2023-04-24T01:38:01;100961.72;;;11.93;71.56
50684;BME280;36654;45.042;38.994;2023-04-24T01:40:27;100929.66;;;11.77;71.79
50684;BME280;36654;45.042;38.994;2023-04-24T01:42:53;100943.03;;;11.85;71.76
50684;BME280;36654;45.042;38.994;2023-04-24T01:45:19;100933.22;;;11.79;72.09
50684;BME280;36654;45.042;38.994;2023-04-24T01:47:45;100942.19;;;11.87;72.08
50684;BME280;36654;45.042;38.994;2023-04-24T01:50:11;100938.56;;;11.82;72.12
50684;BME280;36654;45.042;38.994;2023-04-24T01:52:36;100919.00;;;11.71;72.16
50684;BME280;36654;45.042;38.994;2023-04-24T01:55:03;100913.81;;;11.83;72.22
50684;BME280;36654;45.042;38.994;2023-04-24T01:57:31;100936.00;;;11.87;72.52
50684;BME280;36654;45.042;38.994;2023-04-24T01:59:57;100921.81;;;11.88;72.59
50684;BME280;36654;45.042;38.994;2023-04-24T02:02:23;100871.94;;;11.56;72.50
50684;BME280;36654;45.042;38.994;2023-04-24T02:04:55;100936.06;;;11.93;72.96
50684;BME280;36654;45.042;38.994;2023-04-24T02:07:21;100926.31;;;11.95;72.72
50684;BME280;36654;45.042;38.994;2023-04-24T02:09:47;100928.09;;;11.98;72.76
50684;BME280;36654;45.042;38.994;2023-04-24T02:12:13;100894.31;;;11.81;72.83
50684;BME280;36654;45.042;38.994;2023-04-24T02:14:39;100899.75;;;11.91;72.74
50684;BME280;36654;45.042;38.994;2023-04-24T02:17:04;100928.16;;;12.01;72.93
50684;BME280;36654;45.042;38.994;2023-04-24T02:19:30;100913.03;;;11.95;72.94
50684;BME280;36654;45.042;38.994;2023-04-24T02:21:56;100933.53;;;12.10;73.24
50684;BME280;36654;45.042;38.994;2023-04-24T02:24:22;100923.81;;;12.12;72.95
50684;BME280;36654;45.042;38.994;2023-04-24T02:26:47;100929.16;;;12.14;72.93
50684;BME280;36654;45.042;38.994;2023-04-24T02:29:13;100940.69;;;12.17;72.90
50684;BME280;36654;45.042;38.994;2023-04-24T02:31:38;100944.25;;;12.19;72.68
50684;BME280;36654;45.042;38.994;2023-04-24T02:34:04;100942.50;;;12.21;72.77
50684;BME280;36654;45.042;38.994;2023-04-24T02:36:30;100922.03;;;12.11;72.96
50684;BME280;36654;45.042;38.994;2023-04-24T02:38:55;100898.94;;;12.04;72.74
50684;BME280;36654;45.042;38.994;2023-04-24T02:41:21;100913.19;;;12.14;72.67
50684;BME280;36654;45.042;38.994;2023-04-24T02:43:46;100903.38;;;12.05;72.84
50684;BME280;36654;45.042;38.994;2023-04-24T02:46:12;100930.06;;;12.20;72.64
50684;BME280;36654;45.042;38.994;2023-04-24T02:48:38;100947.81;;;12.21;72.71
50684;BME280;36654;45.042;38.994;2023-04-24T02:51:03;100934.47;;;12.17;72.66
50684;BME280;36654;45.042;38.994;2023-04-24T02:53:29;100938.91;;;12.16;72.51
50684;BME280;36654;45.042;38.994;2023-04-24T02:55:58;100909.50;;;11.98;72.85
50684;BME280;36654;45.042;38.994;2023-04-24T02:58:24;100938.03;;;12.16;73.09
50684;BME280;36654;45.042;38.994;2023-04-24T03:00:53;100941.59;;;12.21;73.01
50684;BME280;36654;45.042;38.994;2023-04-24T03:03:20;100930.97;;;12.22;72.97
50684;BME280;36654;45.042;38.994;2023-04-24T03:05:46;100900.72;;;12.03;73.05
50684;BME280;36654;45.042;38.994;2023-04-24T03:08:12;100929.22;;;12.24;73.09
50684;BME280;36654;45.042;38.994;2023-04-24T03:10:37;100939.00;;;12.30;73.13
50684;BME280;36654;45.042;38.994;2023-04-24T03:13:03;100924.81;;;12.26;72.93
50684;BME280;36654;45.042;38.994;2023-04-24T03:15:29;100946.16;;;12.39;73.09
50684;BME280;36654;45.042;38.994;2023-04-24T03:17:54;100956.81;;;12.45;72.73
50684;BME280;36654;45.042;38.994;2023-04-24T03:20:20;100953.34;;;12.50;72.59
50684;BME280;36654;45.042;38.994;2023-04-24T03:22:46;100948.00;;;12.52;72.47
50684;BME280;36654;45.042;38.994;2023-04-24T03:25:12;100957.84;;;12.61;72.33
50684;BME280;36654;45.042;38.994;2023-04-24T03:27:38;100939.22;;;12.65;72.07
50684;BME280;36654;45.042;38.994;2023-04-24T03:30:08;100944.59;;;12.68;71.84
50684;BME280;36654;45.042;38.994;2023-04-24T03:32:33;100945.47;;;12.69;71.74
50684;BME280;36654;45.042;38.994;2023-04-24T03:34:59;100939.25;;;12.68;71.78
50684;BME280;36654;45.042;38.994;2023-04-24T03:37:25;100888.59;;;12.44;71.80
50684;BME280;36654;45.042;38.994;2023-04-24T03:39:52;100918.81;;;12.63;71.61
50684;BME280;36654;45.042;38.994;2023-04-24T03:42:17;100925.06;;;12.63;71.56
50684;BME280;36654;45.042;38.994;2023-04-24T03:44:43;100942.84;;;12.77;71.58
50684;BME280;36654;45.042;38.994;2023-04-24T03:47:08;100885.94;;;12.47;71.60
50684;BME280;36654;45.042;38.994;2023-04-24T03:49:34;100936.69;;;12.81;71.58
50684;BME280;36654;45.042;38.994;2023-04-24T03:52:00;100901.97;;;12.62;71.37
50684;BME280;36654;45.042;38.994;2023-04-24T03:54:25;100936.69;;;12.81;71.41
50684;BME280;36654;45.042;38.994;2023-04-24T03:56:51;100943.78;;;12.83;71.35
50684;BME280;36654;45.042;38.994;2023-04-24T03:59:16;100934.88;;;12.80;71.68
50684;BME280;36654;45.042;38.994;2023-04-24T04:01:42;100912.63;;;12.65;71.59
50684;BME280;36654;45.042;38.994;2023-04-24T04:04:08;100939.34;;;12.84;71.66
50684;BME280;36654;45.042;38.994;2023-04-24T04:06:34;100938.47;;;12.83;71.71
50684;BME280;36654;45.042;38.994;2023-04-24T04:09:01;100944.66;;;12.87;71.89
50684;BME280;36654;45.042;38.994;2023-04-24T04:11:28;100934.03;;;12.81;71.63
50684;BME280;36654;45.042;38.994;2023-04-24T04:13:54;100934.94;;;12.86;71.68
50684;BME280;36654;45.042;38.994;2023-04-24T04:16:20;100936.69;;;12.81;71.82
50684;BME280;36654;45.042;38.994;2023-04-24T04:18:46;100911.78;;;12.71;71.97
50684;BME280;36654;45.042;38.994;2023-04-24T04:21:12;100932.19;;;12.70;72.21
50684;BME280;36654;45.042;38.994;2023-04-24T04:23:37;100921.50;;;12.67;72.42
50684;BME280;36654;45.042;38.994;2023-04-24T04:26:03;100928.56;;;12.62;72.56
50684;BME280;36654;45.042;38.994;2023-04-24T04:28:30;100915.28;;;12.61;72.58
50684;BME280;36654;45.042;38.994;2023-04-24T04:30:58;100884.13;;;12.37;72.80
50684;BME280;36654;45.042;38.994;2023-04-24T04:33:24;100901.91;;;12.47;72.96
50684;BME280;36654;45.042;38.994;2023-04-24T04:35:51;100909.94;;;12.58;73.47
50684;BME280;36654;45.042;38.994;2023-04-24T04:38:22;100918.81;;;12.60;73.39
50684;BME280;36654;45.042;38.994;2023-04-24T04:40:48;100909.06;;;12.60;73.47
50684;BME280;36654;45.042;38.994;2023-04-24T04:43:14;100900.22;;;12.61;73.46
50684;BME280;36654;45.042;38.994;2023-04-24T04:45:41;100912.69;;;12.71;73.57
50684;BME280;36654;45.042;38.994;2023-04-24T04:48:09;100910.94;;;12.77;73.53
50684;BME280;36654;45.042;38.994;2023-04-24T04:50:37;100909.16;;;12.79;73.66
50684;BME280;36654;45.042;38.994;2023-04-24T04:53:03;100910.06;;;12.82;73.44
50684;BME280;36654;45.042;38.994;2023-04-24T04:55:29;100908.28;;;12.78;73.35
50684;BME280;36654;45.042;38.994;2023-04-24T04:57:55;100910.06;;;12.82;73.46
50684;BME280;36654;45.042;38.994;2023-04-24T05:00:22;100903.84;;;12.82;73.39
50684;BME280;36654;45.042;38.994;2023-04-24T05:02:50;100904.72;;;12.79;73.63
50684;BME280;36654;45.042;38.994;2023-04-24T05:05:16;100900.22;;;12.67;73.66
50684;BME280;36654;45.042;38.994;2023-04-24T05:07:43;100870.06;;;12.56;73.58
50684;BME280;36654;45.042;38.994;2023-04-24T05:10:09;100896.72;;;12.71;73.65
50684;BME280;36654;45.042;38.994;2023-04-24T05:12:35;100898.47;;;12.72;73.81
50684;BME280;36654;45.042;38.994;2023-04-24T05:15:00;100911.81;;;12.80;73.87
50684;BME280;36654;45.042;38.994;2023-04-24T05:17:26;100915.38;;;12.82;73.75
50684;BME280;36654;45.042;38.994;2023-04-24T05:19:52;100910.94;;;12.83;73.94
50684;BME280;36654;45.042;38.994;2023-04-24T05:22:17;100926.03;;;12.84;73.82
50684;BME280;36654;45.042;38.994;2023-04-24T05:24:46;100931.38;;;12.84;73.85
50684;BME280;36654;45.042;38.994;2023-04-24T05:27:11;100932.22;;;12.80;73.90
50684;BME280;36654;45.042;38.994;2023-04-24T05:29:37;100914.47;;;12.77;74.11
50684;BME280;36654;45.042;38.994;2023-04-24T05:32:03;100895.81;;;12.66;74.06
50684;BME280;36654;45.042;38.994;2023-04-24T05:34:33;100900.28;;;12.70;74.30
50684;BME280;36654;45.042;38.994;2023-04-24T05:36:58;100887.81;;;12.66;74.31
50684;BME280;36654;45.042;38.994;2023-04-24T05:39:24;100914.50;;;12.82;74.43
50684;BME280;36654;45.042;38.994;2023-04-24T05:41:52;100920.69;;;12.82;74.34
50684;BME280;36654;45.042;38.994;2023-04-24T05:44:20;100905.59;;;12.70;74.64
50684;BME280;36654;45.042;38.994;2023-04-24T05:46:46;100913.59;;;12.80;74.79
50684;BME280;36654;45.042;38.994;2023-04-24T05:49:23;100905.59;;;12.75;74.74
50684;BME280;36654;45.042;38.994;2023-04-24T05:51:51;100874.50;;;12.62;74.98
50684;BME280;36654;45.042;38.994;2023-04-24T05:54:17;100923.44;;;12.93;74.97
50684;BME280;36654;45.042;38.994;2023-04-24T05:56:42;100909.25;;;12.94;74.82
50684;BME280;36654;45.042;38.994;2023-04-24T05:59:08;100917.22;;;12.94;74.86
50684;BME280;36654;45.042;38.994;2023-04-24T06:01:34;100922.59;;;13.03;74.87
50684;BME280;36654;45.042;38.994;2023-04-24T06:04:04;100916.38;;;13.06;74.60
50684;BME280;36654;45.042;38.994;2023-04-24T06:06:29;100919.94;;;13.09;74.75
50684;BME280;36654;45.042;38.994;2023-04-24T06:08:55;100924.38;;;13.09;74.73
50684;BME280;36654;45.042;38.994;2023-04-24T06:11:22;100920.84;;;13.17;74.84
50684;BME280;36654;45.042;38.994;2023-04-24T06:13:48;100932.44;;;13.26;74.55
50684;BME280;36654;45.042;38.994;2023-04-24T06:16:13;100922.72;;;13.31;74.59
50684;BME280;36654;45.042;38.994;2023-04-24T06:18:39;100930.72;;;13.40;74.43
50684;BME280;36654;45.042;38.994;2023-04-24T06:21:05;100927.19;;;13.47;74.15
50684;BME280;36654;45.042;38.994;2023-04-24T06:23:31;100901.44;;;13.38;73.88
50684;BME280;36654;45.042;38.994;2023-04-24T06:25:58;100916.53;;;13.50;73.55
50684;BME280;36654;45.042;38.994;2023-04-24T06:28:24;100908.56;;;13.59;73.27
50684;BME280;36654;45.042;38.994;2023-04-24T06:30:50;100891.69;;;13.54;72.90
50684;BME280;36654;45.042;38.994;2023-04-24T06:33:16;100913.94;;;13.73;72.46
50684;BME280;36654;45.042;38.994;2023-04-24T06:35:42;100880.16;;;13.62;72.54
50684;BME280;36654;45.042;38.994;2023-04-24T06:38:08;100891.69;;;13.70;72.39
50684;BME280;36654;45.042;38.994;2023-04-24T06:40:33;100909.50;;;13.86;72.06
50684;BME280;36654;45.042;38.994;2023-04-24T06:43:02;100922.81;;;13.92;72.12
50684;BME280;36654;45.042;38.994;2023-04-24T06:45:28;100904.16;;;13.78;72.04
50684;BME280;36654;45.042;38.994;2023-04-24T06:47:54;100920.13;;;13.89;71.93
50684;BME280;36654;45.042;38.994;2023-04-24T06:50:20;100915.72;;;13.91;72.44
50684;BME280;36654;45.042;38.994;2023-04-24T06:52:46;100878.38;;;13.70;72.25
50684;BME280;36654;45.042;38.994;2023-04-24T06:55:11;100906.81;;;13.86;72.75
50684;BME280;36654;45.042;38.994;2023-04-24T06:57:37;100906.84;;;13.91;73.07
50684;BME280;36654;45.042;38.994;2023-04-24T07:00:05;100903.25;;;13.95;72.87
50684;BME280;36654;45.042;38.994;2023-04-24T07:02:35;100893.47;;;13.92;73.05
50684;BME280;36654;45.042;38.994;2023-04-24T07:05:00;100905.06;;;14.00;73.24
50684;BME280;36654;45.042;38.994;2023-04-24T07:07:26;100889.06;;;14.03;73.35
50684;BME280;36654;45.042;38.994;2023-04-24T07:09:52;100881.06;;;14.00;74.01
50684;BME280;36654;45.042;38.994;2023-04-24T07:12:19;100889.94;;;14.12;73.85
50684;BME280;36654;45.042;38.994;2023-04-24T07:14:50;100871.25;;;14.12;73.86
50684;BME280;36654;45.042;38.994;2023-04-24T07:17:16;100865.03;;;14.22;73.84
50684;BME280;36654;45.042;38.994;2023-04-24T07:19:41;100887.19;;;14.47;73.36
50684;BME280;36654;45.042;38.994;2023-04-24T07:22:09;100869.44;;;14.46;72.87
50684;BME280;36654;45.042;38.994;2023-04-24T07:24:39;100889.88;;;14.61;72.28
50684;BME280;36654;45.042;38.994;2023-04-24T07:27:05;100888.09;;;14.63;72.20
50684;BME280;36654;45.042;38.994;2023-04-24T07:29:30;100897.81;;;14.81;72.21
50684;BME280;36654;45.042;38.994;2023-04-24T07:31:56;100905.75;;;14.95;72.06
50684;BME280;36654;45.042;38.994;2023-04-24T07:34:22;100901.25;;;15.09;71.26
50684;BME280;36654;45.042;38.994;2023-04-24T07:36:51;100890.56;;;15.12;71.02
50684;BME280;36654;45.042;38.994;2023-04-24T07:39:16;100854.19;;;14.89;70.70
50684;BME280;36654;45.042;38.994;2023-04-24T07:41:42;100880.75;;;15.14;70.29
50684;BME280;36654;45.042;38.994;2023-04-24T07:44:07;100886.97;;;15.19;69.72
50684;BME280;36654;45.042;38.994;2023-04-24T07:46:33;100880.75;;;15.20;69.24
50684;BME280;36654;45.042;38.994;2023-04-24T07:48:59;100884.28;;;15.25;69.14
50684;BME280;36654;45.042;38.994;2023-04-24T07:51:27;100890.47;;;15.27;69.02
50684;BME280;36654;45.042;38.994;2023-04-24T07:53:56;100901.16;;;15.26;68.48
50684;BME280;36654;45.042;38.994;2023-04-24T07:56:21;100908.31;;;15.19;67.83
50684;BME280;36654;45.042;38.994;2023-04-24T07:58:47;100910.16;;;15.13;67.86
50684;BME280;36654;45.042;38.994;2023-04-24T08:01:13;100910.16;;;15.06;67.46
50684;BME280;36654;45.042;38.994;2023-04-24T08:03:38;100893.34;;;14.91;67.28
50684;BME280;36654;45.042;38.994;2023-04-24T08:06:04;100872.91;;;14.79;67.32
50684;BME280;36654;45.042;38.994;2023-04-24T08:08:30;100894.22;;;14.91;67.49
50684;BME280;36654;45.042;38.994;2023-04-24T08:10:55;100848.09;;;14.57;67.67
50684;BME280;36654;45.042;38.994;2023-04-24T08:13:21;100872.00;;;14.81;67.61
50684;BME280;36654;45.042;38.994;2023-04-24T08:15:47;100911.09;;;15.01;67.78
50684;BME280;36654;45.042;38.994;2023-04-24T08:18:16;100904.00;;;14.94;67.65
50684;BME280;36654;45.042;38.994;2023-04-24T08:20:41;100919.97;;;15.03;67.58
50684;BME280;36654;45.042;38.994;2023-04-24T08:23:07;100906.66;;;14.94;67.41
50684;BME280;36654;45.042;38.994;2023-04-24T08:25:34;100916.44;;;14.95;67.47
50684;BME280;36654;45.042;38.994;2023-04-24T08:28:03;100905.78;;;14.92;67.79
50684;BME280;36654;45.042;38.994;2023-04-24T08:30:29;100914.69;;;14.87;68.18
50684;BME280;36654;45.042;38.994;2023-04-24T08:32:56;100925.38;;;14.91;68.93
50684;BME280;36654;45.042;38.994;2023-04-24T08:35:21;100916.50;;;14.79;69.50
50684;BME280;36654;45.042;38.994;2023-04-24T08:37:48;100933.41;;;14.77;70.32
50684;BME280;36654;45.042;38.994;2023-04-24T08:40:15;100915.66;;;14.59;71.24
50684;BME280;36654;45.042;38.994;2023-04-24T08:42:43;100922.78;;;14.51;71.72
50684;BME280;36654;45.042;38.994;2023-04-24T08:45:13;100924.53;;;14.42;72.41
50684;BME280;36654;45.042;38.994;2023-04-24T08:47:40;100931.69;;;14.36;73.04
50684;BME280;36654;45.042;38.994;2023-04-24T08:50:07;100886.38;;;14.10;73.20
50684;BME280;36654;45.042;38.994;2023-04-24T08:52:34;100920.13;;;14.17;73.71
50684;BME280;36654;45.042;38.994;2023-04-24T08:55:00;100913.94;;;14.01;74.05
50684;BME280;36654;45.042;38.994;2023-04-24T08:57:27;100921.91;;;13.99;74.73
50684;BME280;36654;45.042;38.994;2023-04-24T08:59:54;100932.56;;;13.87;75.02
50684;BME280;36654;45.042;38.994;2023-04-24T09:02:21;100928.13;;;13.78;75.16
50684;BME280;36654;45.042;38.994;2023-04-24T09:04:47;100909.47;;;13.71;75.53
50684;BME280;36654;45.042;38.994;2023-04-24T09:07:14;100920.09;;;13.68;75.78
50684;BME280;36654;45.042;38.994;2023-04-24T09:09:40;100927.22;;;13.72;75.67
50684;BME280;36654;45.042;38.994;2023-04-24T09:12:07;100937.88;;;13.75;75.98
50684;BME280;36654;45.042;38.994;2023-04-24T09:14:34;100893.44;;;13.52;76.08
50684;BME280;36654;45.042;38.994;2023-04-24T09:17:02;100908.56;;;13.56;76.13
50684;BME280;36654;45.042;38.994;2023-04-24T09:19:28;100940.56;;;13.78;76.47
50684;BME280;36654;45.042;38.994;2023-04-24T09:21:54;100925.44;;;13.72;76.74
50684;BME280;36654;45.042;38.994;2023-04-24T09:24:21;100945.91;;;13.84;76.89
50684;BME280;36654;45.042;38.994;2023-04-24T09:26:57;100941.44;;;13.80;76.69
50684;BME280;36654;45.042;38.994;2023-04-24T09:29:24;100936.13;;;13.80;76.96
50684;BME280;36654;45.042;38.994;2023-04-24T09:31:50;100865.91;;;13.43;77.27
50684;BME280;36654;45.042;38.994;2023-04-24T09:34:21;100920.16;;;13.75;77.50
50684;BME280;36654;45.042;38.994;2023-04-24T09:36:48;100912.16;;;13.74;77.57
50684;BME280;36654;45.042;38.994;2023-04-24T09:39:15;100918.34;;;13.68;77.76
50684;BME280;36654;45.042;38.994;2023-04-24T09:41:55;100895.25;;;13.49;78.12
50684;BME280;36654;45.042;38.994;2023-04-24T09:44:28;100868.59;;;13.41;78.63
50684;BME280;36654;45.042;38.994;2023-04-24T09:46:59;100913.91;;;13.69;78.72
50684;BME280;36654;45.042;38.994;2023-04-24T09:49:30;100877.50;;;13.55;78.83
50684;BME280;36654;45.042;38.994;2023-04-24T09:52:04;100917.47;;;13.78;78.93
50684;BME280;36654;45.042;38.994;2023-04-24T09:54:30;100909.50;;;13.86;78.87
50684;BME280;36654;45.042;38.994;2023-04-24T09:56:55;100925.50;;;13.98;78.86
50684;BME280;36654;45.042;38.994;2023-04-24T09:59:22;100919.25;;;14.04;78.96
50684;BME280;36654;45.042;38.994;2023-04-24T10:01:48;100915.72;;;14.03;78.29
50684;BME280;36654;45.042;38.994;2023-04-24T10:04:23;100916.59;;;14.04;78.67
50684;BME280;36654;45.042;38.994;2023-04-24T10:06:51;100901.47;;;14.00;78.28
50684;BME280;36654;45.042;38.994;2023-04-24T10:09:22;100904.16;;;14.01;78.63
50684;BME280;36654;45.042;38.994;2023-04-24T10:11:50;100904.16;;;14.01;78.37
50684;BME280;36654;45.042;38.994;2023-04-24T10:14:18;100888.19;;;13.95;78.39
50684;BME280;36654;45.042;38.994;2023-04-24T10:16:46;100874.84;;;13.78;78.76
50684;BME280;36654;45.042;38.994;2023-04-24T10:19:12;100893.50;;;13.83;79.14
50684;BME280;36654;45.042;38.994;2023-04-24T10:21:40;100881.94;;;13.75;79.62
50684;BME280;36654;45.042;38.994;2023-04-24T10:24:08;100884.63;;;13.81;79.95
50684;BME280;36654;45.042;38.994;2023-04-24T10:26:35;100893.50;;;13.83;79.71
50684;BME280;36654;45.042;38.994;2023-04-24T10:29:03;100892.63;;;13.81;79.91
50684;BME280;36654;45.042;38.994;2023-04-24T10:31:31;100885.50;;;13.80;80.08
50684;BME280;36654;45.042;38.994;2023-04-24T10:33:59;100881.03;;;13.77;80.16
50684;BME280;36654;45.042;38.994;2023-04-24T10:36:27;100894.38;;;13.74;80.32
50684;BME280;36654;45.042;38.994;2023-04-24T10:38:56;100862.41;;;13.51;80.52
50684;BME280;36654;45.042;38.994;2023-04-24T10:41:25;100852.59;;;13.50;80.68
50684;BME280;36654;45.042;38.994;2023-04-24T10:44:11;100886.38;;;13.85;80.58
50684;BME280;36654;45.042;38.994;2023-04-24T10:46:38;100891.72;;;13.91;80.43
50684;BME280;36654;45.042;38.994;2023-04-24T10:49:05;100887.28;;;13.86;79.91
50684;BME280;36654;45.042;38.994;2023-04-24T10:51:51;100850.84;;;13.68;79.72
50684;BME280;36654;45.042;38.994;2023-04-24T10:56:51;100875.75;;;13.93;79.96
50684;BME280;36654;45.042;38.994;2023-04-24T10:59:35;100877.50;;;13.92;79.96
50684;BME280;36654;45.042;38.994;2023-04-24T11:02:02;100880.16;;;13.92;80.14
50684;BME280;36654;45.042;38.994;2023-04-24T11:04:32;100875.75;;;13.93;80.45
50684;BME280;36654;45.042;38.994;2023-04-24T11:06:58;100877.50;;;13.98;80.61
50684;BME280;36654;45.042;38.994;2023-04-24T11:09:27;100875.72;;;14.05;80.49
50684;BME280;36654;45.042;38.994;2023-04-24T11:12:04;100863.28;;;14.02;80.16
50684;BME280;36654;45.042;38.994;2023-04-24T11:17:34;100888.16;;;14.26;79.60
50684;BME280;36654;45.042;38.994;2023-04-24T11:20:07;100872.16;;;14.23;78.95
50684;BME280;36654;45.042;38.994;2023-04-24T11:22:35;100877.47;;;14.26;79.10
50684;BME280;36654;45.042;38.994;2023-04-24T11:25:05;100826.88;;;13.98;78.90
50684;BME280;36654;45.042;38.994;2023-04-24T11:27:39;100864.16;;;14.18;78.97
50684;BME280;36654;45.042;38.994;2023-04-24T11:30:06;100845.50;;;14.11;79.00
50684;BME280;36654;45.042;38.994;2023-04-24T11:32:39;100834.84;;;14.05;78.88
50684;BME280;36654;45.042;38.994;2023-04-24T11:35:19;100869.47;;;14.31;79.28
50684;BME280;36654;45.042;38.994;2023-04-24T11:37:47;100864.13;;;14.34;79.19
50684;BME280;36654;45.042;38.994;2023-04-24T11:40:17;100860.56;;;14.32;79.23
50684;BME280;36654;45.042;38.994;2023-04-24T11:42:47;100810.88;;;13.97;79.06
50684;BME280;36654;45.042;38.994;2023-04-24T11:45:13;100873.91;;;14.24;79.08
50684;BME280;36654;45.042;38.994;2023-04-24T11:47:41;100867.72;;;14.13;79.18
50684;BME280;36654;45.042;38.994;2023-04-24T11:50:12;100851.75;;;14.03;79.43
50684;BME280;36654;45.042;38.994;2023-04-24T11:52:42;100865.94;;;14.09;79.66
50684;BME280;36654;45.042;38.994;2023-04-24T11:57:42;100851.75;;;14.03;79.95
50684;BME280;36654;45.042;38.994;2023-04-24T12:00:25;100850.84;;;13.98;80.05
50684;BME280;36654;45.042;38.994;2023-04-24T12:02:51;100849.94;;;14.02;80.55
50684;BME280;36654;45.042;38.994;2023-04-24T12:05:25;100868.63;;;14.06;80.49
50684;BME280;36654;45.042;38.994;2023-04-24T12:07:51;100862.38;;;14.02;80.32
50684;BME280;36654;45.042;38.994;2023-04-24T12:10:24;100862.38;;;13.97;80.60
50684;BME280;36654;45.042;38.994;2023-04-24T12:12:51;100845.53;;;13.95;80.48
50684;BME280;36654;45.042;38.994;2023-04-24T12:15:18;100805.56;;;13.77;80.64
50684;BME280;36654;45.042;38.994;2023-04-24T12:17:45;100852.59;;;14.02;80.44
50684;BME280;36654;45.042;38.994;2023-04-24T12:20:11;100849.97;;;13.87;80.38
50684;BME280;36654;45.042;38.994;2023-04-24T12:22:45;100859.72;;;13.94;80.90
50684;BME280;36654;45.042;38.994;2023-04-24T12:25:12;100849.09;;;13.87;80.69
50684;BME280;36654;45.042;38.994;2023-04-24T12:27:38;100845.53;;;13.86;80.78
50684;BME280;36654;45.042;38.994;2023-04-24T12:30:05;100849.09;;;13.88;81.04
50684;BME280;36654;45.042;38.994;2023-04-24T12:32:31;100833.97;;;13.82;81.02
50684;BME280;36654;45.042;38.994;2023-04-24T12:34:57;100857.09;;;13.96;81.13
50684;BME280;36654;45.042;38.994;2023-04-24T12:37:25;100850.84;;;14.01;81.12
50684;BME280;36654;45.042;38.994;2023-04-24T12:40:08;100853.50;;;14.06;81.04
50684;BME280;36654;45.042;38.994;2023-04-24T12:42:35;100833.97;;;13.99;80.95
50684;BME280;36654;45.042;38.994;2023-04-24T12:45:04;100849.06;;;14.11;80.47
50684;BME280;36654;45.042;38.994;2023-04-24T12:47:30;100851.75;;;14.08;80.46